West Bromwich, United Kingdom
Current Conditions -  °F | °C
As of 11:20 PM on Wednesday 17 Dec 2014 (Local Time) from EGBB Reporting Station
Broken Clouds Broken Clouds  
Wind Chill: 52°   Ceiling: 2300
Heat Index: 52°   Visibility: 6mi
Dew Point: 50°   Wind: 8mph
Humidity: 94%   Direction: 210°SSW
Pressure: 29.74"   Gusts: NA
Location:  52.52°N, 2°W
Report Text: EGBB 172320Z 21007KT 170V240 9999 FEW007 SCT017 BKN023 11/10 Q1007
Loading
Personal Weather Stations






























Interactive Weather Map New forecast layout! Learn more

10-Day Weather Forecast

Advertisements
Track Severe Weather on mobile